AirNav   TITAN Aviation Fuels
 
 1489 users online  

76AZ West Valley Medical Center Heliport
Goodyear, Arizona, USA

GOING TO GOODYEAR?


FAA INFORMATION EFFECTIVE 07 OCTOBER 2021

Location

FAA Identifier: 76AZ
Lat/Long: 33-27-40.7200N 112-21-09.9400W
33-27.678667N 112-21.165667W
33.4613111,-112.3527611
(estimated)
Elevation: 974 ft. / 297 m (estimated)
From city: 1 mile NE of GOODYEAR, AZ
Time zone: UTC -7 (year round; does not observe DST)
Zip code: 85338

Heliport Operations

Heliport use: Private use. Permission required prior to landing
Activation date: 10/2003
Control tower: no
ARTCC: ALBUQUERQUE CENTER
FSS: PRESCOTT FLIGHT SERVICE STATION
Attendance: UNATNDD
Wind indicator: yes
Segmented circle: no
Lights: FOR PERIMETER LGTS CALL (623) 882-1865.

Heliport Communications

WX AWOS-3 at GEU (5 nm NE): PHONE 623-877-8609
WX AWOS-3 at BXK (17 nm W): 119.625 (623-386-7627)
WX ASOS at PHX (17 nm E): PHONE 602-231-8557
WX ASOS at DVT (19 nm NE): 126.5 (623-587-7764)

Nearby radio navigation aids

VOR radial/distance  VOR name  Freq  Var
PXRr263/19.2PHOENIX VORTAC115.6012E
BXKr075/23.6BUCKEYE VORTAC110.6014E
GBNr014/34.3GILA BEND VORTAC116.6014E
IWAr272/36.4WILLIE VORTAC113.3013E

Heliport Services

Runway Information

Helipad H1

Dimensions: 40 x 40 ft. / 12 x 12 m
Surface: concrete
Runway edge lights: PERI
Latitude: 33-27.678667N
Longitude: 112-21.168000W
Elevation: 974.0 ft.
Traffic pattern: leftleft

Helipad H2

Dimensions: 40 x 40 ft. / 12 x 12 m
Surface: asphalt/concrete
Latitude: 33-27.678667N
Longitude: 112-21.163167W
Elevation: 974.0 ft.
Traffic pattern: leftleft

Heliport Ownership and Management from official FAA records

Ownership: Privately-owned
Owner: WEST VALLEY HOSPITAL
13677 W. MCDOWELL RD.
GOODYEAR, AZ 85395
Phone 623-882-1507
Manager: JIM KRUCKENBERG
13677 W. MCDOWELL RD.
GOODYEAR, AZ 85395
Phone 623-882-1759

Additional Remarks

FOR CD CTC PHOENIX APCH AT 602-306-2565.

Instrument Procedures

There are no published instrument procedures at 76AZ.

Some nearby airports with instrument procedures:

KGYR - Phoenix Goodyear Airport (3 nm SW)
KLUF - Luke Air Force Base (5 nm N)
KGEU - Glendale Municipal Airport (5 nm NE)
KPHX - Phoenix Sky Harbor International Airport (17 nm E)
KDVT - Phoenix Deer Valley Airport (19 nm NE)
 
Loc | Ops | Rwys | IFR | FBO | Links
Com | Nav | Svcs | Stats | Notes
Area around 76AZ (West Valley Medical Center Heliport)
 
Road maps at: MapQuest Bing Google
 
Aerial photo
No photo
 
Sectional chart

 
Airport distance calculator
Flying to West Valley Medical Center Heliport? Find the distance to fly.

From to 76AZ

Sunrise and sunset
Times for 25-Oct-2021
 Local
(UTC-7)
 Zulu
(UTC)
Morning civil twilight06:1813:18
Sunrise06:4313:43
Sunset17:4400:44
Evening civil twilight18:0901:09

Current date and time
Zulu (UTC)  25-Oct-2021 16:48:22
Local (UTC-7)  25-Oct-2021 09:48:22
 
METAR
KGYR 
3nm S 
251447Z 09005KT 10SM FEW120 17/06 A2991
KLUF 
3nm N 
251458Z AUTO 36003KT 10SM CLR 19/06 A2989 RMK AO2 SLP114 T01880056 52004 $
KGEU 
5nm NE 
251447Z 00000KT 10SM SKC 18/05 A2992
KPHX 
15nm E 
251451Z 09007KT 10SM FEW250 19/06 A2990 RMK AO2 SLP111 T01890061 53005
KBXK 
17nm W 
251515Z AUTO 10012KT 10SM 22/06 A2989 RMK A01
KDVT 
20nm NE 
251453Z 11003KT 10SM CLR 19/06 A2992 RMK AO2 SLP113 T01890056 51003
TAF
KLUF 
3nm N 
251200Z 2512/2618 VRB06KT 9999 FEW250 QNH2973INS TEMPO 2517/2523 21015G20KT TEMPO 2601/2603 21009KT BECMG 2604/2605 27012G18KT 9999 VCSH SCT070 BKN120 QNH2979INS BECMG 2610/2611 VRB06KT 9999 NSW FEW180 QNH2983INS BECMG 2617/2618 30012KT 9999 NSW SKC QNH2990INS TX32/2523Z TN14/2513Z
KPHX 
15nm E 
251125Z 2512/2618 11005KT P6SM SKC FM251900 18009KT P6SM SKC FM252100 23011G18KT P6SM FEW250 FM260000 24014G22KT P6SM FEW080 FEW250 FM260600 26011G18KT P6SM BKN080 FM261200 26009KT P6SM FEW080
KDVT 
20nm NE 
251125Z 2512/2612 09005KT P6SM SKC FM251700 17009KT P6SM SKC FM252100 20011G18KT P6SM SKC FM260200 23012G20KT P6SM FEW070 FEW250 FM260600 25014G22KT P6SM BKN070 FM261100 25010KT P6SM SCT070
NOTAMs
Click for the latest NOTAMs
NOTAMs are issued by the DoD/FAA and will open in a separate window not controlled by AirNav.

 

 
 

Would you like to see your business listed on this page?

 If your business provides an interesting product or service to pilots, flight crews, aircraft, or users of the West Valley Medical Center Heliport, you should consider listing it here.  To start the listing process, click on the button below
 
Add a business
 

Other Pages about West Valley Medical Center Heliport

Update a link
 
Copyright © AirNav, LLC. All rights reserved. Privacy Policy  Contact